McWilliams, Alabama
Current Conditions -  °F | °C
As of 11:56 PM on Monday 26 Jan 2015 (Local Time) from KPRN Reporting Station
Clear Clear  
Wind Chill: 36°   Ceiling: Unl
Heat Index: 39°   Visibility: 10mi
Dew Point: 31°   Wind: 5mph
Humidity: 73%   Direction: 270°W
Pressure: 30.01"   Gusts: NA
Location:  31.83°N, 87.09°W
Report Text: KPRN 270556Z AUTO 27004KT 10SM CLR 04/M01 A3001 RMK AO2 SLP163 T00391006 10078 20011 401060011 53005
Loading
Personal Weather Stations






























Interactive Weather Map New forecast layout! Learn more

10-Day Weather Forecast

Advertisements
Track Severe Weather on mobile